Weather at Bradley International Airport

Public forecast

Using degrees Fahrenheit for public forecast. Weather courtesy of forecast.io.

Current aviation weather report (METAR) for Bradley International Airport

Retrieved 2020/09/30 09:44 UTC (0 seconds ago):

KBDL 300944Z 19018G29KT 3SM R06/4500VP6000FT RA BR SCT011 BKN016 OVC021 22/21 A2941

Aviation forecast (TAF) for Bradley International Airport

Retrieved 2020/09/30 06:42 UTC (3 hours ago):

TAF KBDL 300540Z 3006/0112 16017G20KT 5SM -RA BR SCT008 BKN015 OVC024 FM300900 18018G36KT 3SM +RA BR OVC010 WS020/18045KT FM301100 21009KT 3SM +RA BR OVC030 FM301500 23009KT P6SM VCSH OVC017 FM301700 24008KT P6SM BKN120 FM010400 21005KT P6SM SKC